createdAt,value
2016-12-28T00:00:20.311Z,99.99
2016-12-28T00:01:31.326Z,99.99
2016-12-28T00:02:42.320Z,99.99
2016-12-28T00:03:53.317Z,99.99
2016-12-28T00:05:04.350Z,99.99
2016-12-28T00:06:15.340Z,99.99
2016-12-28T00:07:26.327Z,99.99
2016-12-28T00:08:37.313Z,99.99
2016-12-28T00:09:48.336Z,99.99
2016-12-28T00:10:59.519Z,99.99
2016-12-28T00:12:10.504Z,99.99
2016-12-28T00:13:21.484Z,99.99
2016-12-28T00:14:32.707Z,99.99
2016-12-28T00:15:43.691Z,99.99
2016-12-28T00:16:54.873Z,99.99
2016-12-28T00:18:05.857Z,99.99
2016-12-28T00:19:16.842Z,99.99
2016-12-28T00:20:27.826Z,99.99
2016-12-28T00:21:39.002Z,99.99
2016-12-28T00:22:50.187Z,99.99
2016-12-28T00:24:01.181Z,99.99
2016-12-28T00:25:12.168Z,99.99
2016-12-28T00:26:23.156Z,99.99
2016-12-28T00:27:34.136Z,99.99
2016-12-28T00:28:45.125Z,99.99
2016-12-28T00:29:56.106Z,99.99
2016-12-28T00:31:07.294Z,99.99
2016-12-28T00:32:18.276Z,99.99
2016-12-28T00:33:29.663Z,99.99
2016-12-28T00:34:40.653Z,99.99
2016-12-28T00:35:51.634Z,99.99
2016-12-28T00:37:02.617Z,99.99
2016-12-28T00:38:13.804Z,99.99
2016-12-28T00:39:24.801Z,99.99
2016-12-28T00:40:35.786Z,99.99
2016-12-28T00:41:46.769Z,99.99
2016-12-28T00:42:57.954Z,99.99
2016-12-28T00:44:08.938Z,99.99
2016-12-28T00:45:19.924Z,99.99
2016-12-28T00:46:30.912Z,99.99
2016-12-28T00:47:41.893Z,99.99
2016-12-28T00:48:52.882Z,99.99
2016-12-28T00:50:03.877Z,99.99
2016-12-28T00:51:14.864Z,99.99
2016-12-28T00:52:26.049Z,99.99
2016-12-28T00:53:37.032Z,99.99
2016-12-28T00:54:48.017Z,99.99
2016-12-28T00:55:59.002Z,99.99
2016-12-28T00:57:09.989Z,99.99
2016-12-28T00:58:20.977Z,99.99
2016-12-28T00:59:31.954Z,99.99
2016-12-28T01:00:43.344Z,99.99
2016-12-28T01:01:54.326Z,99.99
2016-12-28T01:03:05.301Z,99.99
2016-12-28T01:04:16.281Z,99.99
2016-12-28T01:05:27.271Z,99.99
2016-12-28T01:06:38.455Z,99.99
2016-12-28T01:07:49.445Z,99.99
2016-12-28T01:09:00.434Z,99.99
2016-12-28T01:10:11.421Z,99.99
2016-12-28T01:11:22.409Z,99.99
2016-12-28T01:12:33.389Z,99.99
2016-12-28T01:13:44.378Z,99.99
2016-12-28T01:14:55.565Z,99.99
2016-12-28T01:16:06.746Z,99.99
2016-12-28T01:17:17.727Z,99.99
2016-12-28T01:18:28.707Z,99.99
2016-12-28T01:19:39.697Z,99.99
2016-12-28T01:20:50.672Z,99.99
2016-12-28T01:22:01.661Z,99.99
2016-12-28T01:23:12.649Z,99.99
2016-12-28T01:24:23.645Z,99.99
2016-12-28T01:25:34.633Z,99.99
2016-12-28T01:26:45.828Z,99.99
2016-12-28T01:27:56.824Z,99.99
2016-12-28T01:29:07.813Z,99.99
2016-12-28T01:30:18.847Z,99.99
2016-12-28T01:31:29.823Z,99.99
2016-12-28T01:32:40.811Z,99.99
2016-12-28T01:33:51.822Z,99.99
2016-12-28T01:35:02.809Z,99.99
2016-12-28T01:36:14.203Z,99.99
2016-12-28T01:37:25.188Z,99.99
2016-12-28T01:38:36.199Z,99.99
2016-12-28T01:39:47.182Z,99.99
2016-12-28T01:40:58.371Z,99.99
2016-12-28T01:42:09.356Z,99.99
2016-12-28T01:43:20.343Z,99.99
2016-12-28T01:44:31.327Z,99.99
2016-12-28T01:45:42.513Z,99.99
2016-12-28T01:46:53.700Z,99.99
2016-12-28T01:48:04.886Z,99.99
2016-12-28T01:49:15.875Z,99.99
2016-12-28T01:50:26.864Z,99.99
2016-12-28T01:51:37.848Z,99.99
2016-12-28T01:52:48.833Z,99.99
2016-12-28T01:53:59.811Z,99.99
2016-12-28T01:55:11.805Z,99.99
2016-12-28T01:56:22.790Z,99.99
2016-12-28T01:57:33.770Z,99.99
2016-12-28T01:58:44.741Z,99.99
2016-12-28T01:59:55.728Z,99.99
2016-12-28T02:01:06.915Z,99.99
2016-12-28T02:02:17.896Z,99.99
2016-12-28T02:03:29.088Z,99.99
2016-12-28T02:04:40.070Z,99.99
2016-12-28T02:05:51.249Z,99.99
2016-12-28T02:07:02.429Z,99.99
2016-12-28T02:08:13.414Z,99.99
2016-12-28T02:09:24.398Z,99.99
2016-12-28T02:10:35.774Z,99.99
2016-12-28T02:11:46.952Z,99.99
2016-12-28T02:12:57.938Z,99.99
2016-12-28T02:14:08.923Z,99.99
2016-12-28T02:15:19.910Z,99.99
2016-12-28T02:16:30.891Z,99.99
2016-12-28T02:17:42.080Z,99.99
2016-12-28T02:18:53.264Z,99.99
2016-12-28T02:20:04.457Z,99.99
2016-12-28T02:21:15.436Z,99.99
2016-12-28T02:22:26.616Z,99.99
2016-12-28T02:23:37.600Z,99.99
2016-12-28T02:24:48.793Z,99.99
2016-12-28T02:25:59.775Z,99.99
2016-12-28T02:27:10.764Z,99.99
2016-12-28T02:28:21.741Z,99.99
2016-12-28T02:29:32.725Z,99.99
2016-12-28T02:30:43.710Z,99.99
2016-12-28T02:31:54.719Z,99.99
2016-12-28T02:33:05.710Z,99.99
2016-12-28T02:34:16.694Z,99.99
2016-12-28T02:35:27.726Z,99.99
2016-12-28T02:36:38.713Z,99.99
2016-12-28T02:37:49.723Z,99.99
2016-12-28T02:39:00.703Z,99.99
2016-12-28T02:40:11.687Z,99.99
2016-12-28T02:41:22.922Z,99.99
2016-12-28T02:42:33.904Z,99.99
2016-12-28T02:43:44.893Z,99.99
2016-12-28T02:44:55.886Z,99.99
2016-12-28T02:46:06.869Z,99.99
2016-12-28T02:47:17.899Z,99.99
2016-12-28T02:48:29.082Z,99.99
2016-12-28T02:49:40.063Z,99.99
2016-12-28T02:50:51.047Z,99.99
2016-12-28T02:52:02.033Z,99.99
2016-12-28T02:53:13.019Z,99.99
2016-12-28T02:54:24.004Z,99.99
2016-12-28T02:55:34.988Z,99.99
2016-12-28T02:56:45.970Z,99.99
2016-12-28T02:57:57.158Z,99.99
2016-12-28T02:59:08.198Z,99.99
2016-12-28T03:00:19.378Z,99.99
2016-12-28T03:01:30.357Z,99.99
2016-12-28T03:02:41.363Z,99.99
2016-12-28T03:03:52.393Z,99.99
2016-12-28T03:05:03.378Z,99.99
2016-12-28T03:06:14.573Z,99.99
2016-12-28T03:07:25.556Z,99.99
2016-12-28T03:08:36.546Z,99.99
2016-12-28T03:09:47.586Z,99.99
2016-12-28T03:10:58.566Z,99.99
2016-12-28T03:12:09.551Z,99.99
2016-12-28T03:13:20.731Z,99.99
2016-12-28T03:15:03.336Z,99.99
2016-12-28T03:16:14.320Z,99.99
2016-12-28T03:17:25.310Z,99.99
2016-12-28T03:18:36.294Z,99.99
2016-12-28T03:19:47.278Z,99.99
2016-12-28T03:20:58.312Z,99.99
2016-12-28T03:22:09.713Z,99.99
2016-12-28T03:23:20.695Z,99.99
2016-12-28T03:24:31.684Z,99.99
2016-12-28T03:25:42.863Z,99.99
2016-12-28T03:26:53.849Z,99.99
2016-12-28T03:28:04.865Z,99.99
2016-12-28T03:29:15.850Z,99.99
2016-12-28T03:30:26.834Z,99.99
2016-12-28T03:31:37.820Z,99.99
2016-12-28T03:32:48.802Z,99.99
2016-12-28T03:33:59.780Z,99.99
2016-12-28T03:35:10.961Z,99.99
2016-12-28T03:36:21.952Z,99.99
2016-12-28T03:37:32.935Z,99.99
2016-12-28T03:38:44.120Z,99.99
2016-12-28T03:39:55.109Z,99.99
2016-12-28T03:41:06.089Z,99.99
2016-12-28T03:42:17.073Z,99.99
2016-12-28T03:43:28.056Z,99.99
2016-12-28T03:44:39.035Z,99.99
2016-12-28T03:45:50.024Z,99.99
2016-12-28T03:47:01.009Z,99.99
2016-12-28T03:48:11.991Z,99.99
2016-12-28T03:49:23.178Z,99.99
2016-12-28T03:50:34.169Z,99.99
2016-12-28T03:51:45.147Z,99.99
2016-12-28T03:52:56.137Z,99.99
2016-12-28T03:54:07.113Z,99.99
2016-12-28T03:55:18.098Z,99.99
2016-12-28T03:56:29.087Z,99.99
2016-12-28T03:57:40.083Z,99.99
2016-12-28T03:58:51.278Z,99.99
2016-12-28T04:00:02.311Z,99.99
2016-12-28T04:01:13.328Z,99.99
2016-12-28T04:02:24.310Z,99.99
2016-12-28T04:03:35.287Z,99.99
2016-12-28T04:04:46.270Z,99.99
2016-12-28T04:05:57.259Z,99.99
2016-12-28T04:07:08.250Z,99.99
2016-12-28T04:08:19.239Z,99.99
2016-12-28T04:09:30.213Z,99.99
2016-12-28T04:10:41.208Z,99.99
2016-12-28T04:11:52.194Z,99.99
2016-12-28T04:13:03.375Z,99.99
2016-12-28T04:14:14.361Z,99.99
2016-12-28T04:15:25.547Z,99.99
2016-12-28T04:16:36.526Z,99.99
2016-12-28T04:17:47.508Z,99.99
2016-12-28T04:18:58.492Z,99.99
2016-12-28T04:20:09.474Z,99.99
2016-12-28T04:21:20.482Z,99.99
2016-12-28T04:22:31.665Z,99.99
2016-12-28T04:23:42.646Z,99.99
2016-12-28T04:24:53.630Z,99.99
2016-12-28T04:26:04.609Z,99.99
2016-12-28T04:27:15.603Z,99.99
2016-12-28T04:28:26.586Z,99.99
2016-12-28T04:29:37.572Z,99.99
2016-12-28T04:30:48.562Z,99.99
2016-12-28T04:31:59.749Z,99.99
2016-12-28T04:33:10.736Z,99.99
2016-12-28T04:34:21.726Z,99.99
2016-12-28T04:35:32.707Z,99.99
2016-12-28T04:36:43.693Z,99.99
2016-12-28T04:37:54.675Z,99.99
2016-12-28T04:39:05.660Z,99.99
2016-12-28T04:40:16.646Z,99.99
2016-12-28T04:41:27.634Z,99.99
2016-12-28T04:42:38.621Z,99.99
2016-12-28T04:43:49.814Z,99.99
2016-12-28T04:45:00.795Z,99.99
2016-12-28T04:46:11.782Z,99.99
2016-12-28T04:47:23.176Z,99.99
2016-12-28T04:48:34.165Z,99.99
2016-12-28T04:49:45.355Z,99.99
2016-12-28T04:50:56.547Z,99.99
2016-12-28T04:52:07.538Z,99.99
2016-12-28T04:53:18.525Z,99.99
2016-12-28T04:54:29.506Z,99.99
2016-12-28T04:55:40.495Z,99.99
2016-12-28T04:56:51.479Z,99.99
2016-12-28T04:58:02.456Z,99.99
2016-12-28T04:59:13.644Z,99.99
2016-12-28T05:00:24.679Z,99.99
2016-12-28T05:01:35.863Z,99.99
2016-12-28T05:02:46.854Z,99.99
2016-12-28T05:03:58.030Z,99.99
2016-12-28T05:05:09.013Z,99.99
2016-12-28T05:06:19.997Z,99.99
2016-12-28T05:07:30.987Z,99.99
2016-12-28T05:08:42.002Z,99.99
2016-12-28T05:09:53.190Z,99.99
2016-12-28T05:11:04.173Z,99.99
2016-12-28T05:12:15.156Z,99.99
2016-12-28T05:13:26.151Z,99.99
2016-12-28T05:14:37.134Z,99.99
2016-12-28T05:15:48.322Z,99.99
2016-12-28T05:16:59.296Z,99.99
2016-12-28T05:18:10.482Z,99.99
2016-12-28T05:19:21.470Z,99.99
2016-12-28T05:20:32.451Z,99.99
2016-12-28T05:21:43.441Z,99.99
2016-12-28T05:22:54.425Z,99.99
2016-12-28T05:24:05.403Z,99.99
2016-12-28T05:25:16.389Z,99.99
2016-12-28T05:26:27.374Z,99.99
2016-12-28T05:27:38.587Z,99.99
2016-12-28T05:28:49.778Z,99.99
2016-12-28T05:30:00.759Z,99.99
2016-12-28T05:31:11.750Z,99.99
2016-12-28T05:32:22.932Z,99.99
2016-12-28T05:33:33.922Z,99.99
2016-12-28T05:34:45.100Z,99.99
2016-12-28T05:35:56.076Z,99.99
2016-12-28T05:37:07.062Z,99.99
2016-12-28T05:38:18.243Z,99.99
2016-12-28T05:39:29.224Z,99.99
2016-12-28T05:40:40.212Z,99.99
2016-12-28T05:41:51.199Z,99.99
2016-12-28T05:43:02.185Z,99.99
2016-12-28T05:44:13.167Z,99.99
2016-12-28T05:45:24.149Z,99.99
2016-12-28T05:46:35.336Z,99.99
2016-12-28T05:47:46.316Z,99.99
2016-12-28T05:48:57.299Z,99.99
2016-12-28T05:50:08.484Z,99.99
2016-12-28T05:51:19.464Z,99.99
2016-12-28T05:52:30.448Z,99.99
2016-12-28T05:53:41.439Z,99.99
2016-12-28T05:54:52.418Z,99.99
2016-12-28T05:56:03.397Z,99.99
2016-12-28T05:57:14.394Z,99.99
2016-12-28T05:58:25.380Z,99.99
2016-12-28T05:59:36.389Z,99.99
2016-12-28T06:00:47.375Z,99.99
2016-12-28T06:01:58.359Z,99.99
2016-12-28T06:03:09.345Z,99.99
2016-12-28T06:04:20.331Z,99.99
2016-12-28T06:05:31.313Z,99.99
2016-12-28T06:06:42.298Z,99.99
2016-12-28T06:07:53.487Z,99.99
2016-12-28T06:09:04.468Z,99.99
2016-12-28T06:10:15.659Z,99.99
2016-12-28T06:11:26.646Z,99.99
2016-12-28T06:12:38.035Z,99.99
2016-12-28T06:13:49.221Z,99.99
2016-12-28T06:15:00.401Z,99.99
2016-12-28T06:16:11.587Z,99.99
2016-12-28T06:17:22.578Z,99.99
2016-12-28T06:18:33.558Z,99.99
2016-12-28T06:19:44.738Z,99.99
2016-12-28T06:20:55.777Z,99.99
2016-12-28T06:22:06.766Z,99.99
2016-12-28T06:23:17.743Z,99.99
2016-12-28T06:24:28.755Z,99.99
2016-12-28T06:25:39.742Z,99.99
2016-12-28T06:26:50.725Z,99.99
2016-12-28T06:28:01.702Z,99.99
2016-12-28T06:29:12.690Z,99.99
2016-12-28T06:30:23.667Z,99.99
2016-12-28T06:31:34.649Z,99.99
2016-12-28T06:32:45.633Z,99.99
2016-12-28T06:33:56.628Z,99.99
2016-12-28T06:35:07.605Z,99.99
2016-12-28T06:36:18.593Z,99.99
2016-12-28T06:37:29.791Z,99.99
2016-12-28T06:38:40.771Z,99.99
2016-12-28T06:39:51.754Z,99.99
2016-12-28T06:41:02.940Z,99.99
2016-12-28T06:42:14.125Z,99.99
2016-12-28T06:43:25.104Z,99.99
2016-12-28T06:44:36.090Z,99.99
2016-12-28T06:45:47.071Z,99.99
2016-12-28T06:46:58.057Z,99.99
2016-12-28T06:48:09.036Z,99.99
2016-12-28T06:49:20.015Z,99.99
2016-12-28T06:50:31.240Z,99.99
2016-12-28T06:51:42.219Z,99.99
2016-12-28T06:52:53.402Z,99.99
2016-12-28T06:54:04.380Z,99.99
2016-12-28T06:55:15.363Z,99.99
2016-12-28T06:56:26.360Z,99.99
2016-12-28T06:57:37.348Z,99.99
2016-12-28T06:58:48.324Z,99.99
2016-12-28T06:59:59.315Z,99.99
2016-12-28T07:01:10.305Z,99.99
2016-12-28T07:02:21.289Z,99.99
2016-12-28T07:03:32.680Z,99.99
2016-12-28T07:04:43.661Z,99.99
2016-12-28T07:05:54.643Z,99.99
2016-12-28T07:07:05.629Z,99.99
2016-12-28T07:08:16.653Z,99.99
2016-12-28T07:09:27.635Z,99.99
2016-12-28T07:10:38.625Z,99.99
2016-12-28T07:11:49.615Z,99.99
2016-12-28T07:13:00.592Z,99.99
2016-12-28T07:14:11.575Z,99.99
2016-12-28T07:15:22.555Z,99.99
2016-12-28T07:16:33.531Z,99.99
2016-12-28T07:17:44.715Z,99.99
2016-12-28T07:18:55.898Z,99.99
2016-12-28T07:20:06.885Z,99.99
2016-12-28T07:21:18.062Z,99.71
2016-12-28T07:22:29.238Z,99.62
2016-12-28T07:23:40.220Z,99.71
2016-12-28T07:24:51.414Z,99.99
2016-12-28T07:26:02.395Z,99.71
2016-12-28T07:27:13.386Z,99.99
2016-12-28T07:28:24.564Z,99.66
2016-12-28T07:29:35.544Z,99.76
2016-12-28T07:30:46.526Z,99.99
2016-12-28T07:31:57.505Z,99.76
2016-12-28T07:33:08.485Z,99.95
2016-12-28T07:34:19.472Z,99.29
2016-12-28T07:35:30.602Z,99.99
2016-12-28T07:36:41.584Z,99.99
2016-12-28T07:37:52.568Z,99.99
2016-12-28T07:39:03.551Z,99.99
2016-12-28T07:40:14.529Z,99.99
2016-12-28T07:41:25.570Z,99.57
2016-12-28T07:42:36.552Z,99.99
2016-12-28T07:43:47.529Z,99.57
2016-12-28T07:44:58.505Z,99.99
2016-12-28T07:46:09.484Z,99.99
2016-12-28T07:47:20.668Z,99.99
2016-12-28T07:48:31.650Z,99.99
2016-12-28T07:49:42.829Z,99.99
2016-12-28T07:50:53.817Z,99.99
2016-12-28T07:52:05.034Z,99.99
2016-12-28T07:53:16.077Z,99.99
2016-12-28T07:54:27.461Z,99.99
2016-12-28T07:55:38.447Z,99.99
2016-12-28T07:56:49.440Z,99.99
2016-12-28T07:58:00.473Z,99.99
2016-12-28T07:59:11.660Z,99.99
2016-12-28T08:00:22.638Z,99.99
2016-12-28T08:01:33.632Z,99.99
2016-12-28T08:02:44.618Z,99.99
2016-12-28T08:03:55.674Z,99.99
2016-12-28T08:05:06.653Z,99.99
2016-12-28T08:06:17.631Z,99.99
2016-12-28T08:07:28.606Z,99.99
2016-12-28T08:08:39.594Z,99.99
2016-12-28T08:09:50.581Z,99.99
2016-12-28T08:11:01.582Z,99.99
2016-12-28T08:12:12.564Z,99.99
2016-12-28T08:13:23.548Z,99.99
2016-12-28T08:14:34.530Z,99.99
2016-12-28T08:15:45.510Z,99.99
2016-12-28T08:16:56.692Z,99.99
2016-12-28T08:18:07.676Z,99.99
2016-12-28T08:19:18.661Z,99.99
2016-12-28T08:20:29.666Z,99.99
2016-12-28T08:21:40.663Z,99.99
2016-12-28T08:22:51.639Z,99.99
2016-12-28T08:24:02.628Z,99.99
2016-12-28T08:25:13.630Z,99.99
2016-12-28T08:26:24.609Z,99.99
2016-12-28T08:27:35.598Z,99.99
2016-12-28T08:28:46.586Z,99.99
2016-12-28T08:29:57.767Z,99.99
2016-12-28T08:31:08.750Z,99.99
2016-12-28T08:32:19.730Z,99.9
2016-12-28T08:33:30.713Z,99.99
2016-12-28T08:34:41.695Z,99.99
2016-12-28T08:35:52.680Z,99.99
2016-12-28T08:37:03.669Z,99.99
2016-12-28T08:38:14.657Z,99.99
2016-12-28T08:39:25.642Z,99.99
2016-12-28T08:40:36.622Z,99.99
2016-12-28T08:41:47.603Z,99.99
2016-12-28T08:42:58.592Z,99.99
2016-12-28T08:44:09.574Z,99.9
2016-12-28T08:45:20.605Z,99.99
2016-12-28T08:46:31.587Z,99.24
2016-12-28T08:47:42.774Z,99.52
2016-12-28T08:48:53.987Z,99.62
2016-12-28T08:50:04.987Z,99.9
2016-12-28T08:51:16.203Z,99.99
2016-12-28T08:52:27.184Z,99.9
2016-12-28T08:53:38.163Z,99.99
2016-12-28T08:54:49.156Z,99.99
2016-12-28T08:56:00.149Z,99.43
2016-12-28T08:57:11.135Z,99.62
2016-12-28T08:58:22.114Z,99.99
2016-12-28T08:59:33.098Z,99.99
2016-12-28T09:00:44.074Z,99.99
2016-12-28T09:01:55.057Z,99.99
2016-12-28T09:03:06.040Z,99.99
2016-12-28T09:04:17.017Z,99.99
2016-12-28T09:05:28.204Z,99.99
2016-12-28T09:06:39.620Z,99.86
2016-12-28T09:07:50.807Z,99.29
2016-12-28T09:09:01.787Z,99.29
2016-12-28T09:10:12.773Z,98.35
2016-12-28T09:11:23.959Z,98.25
2016-12-28T09:12:35.146Z,98.63
2016-12-28T09:13:46.129Z,98.44
2016-12-28T09:14:57.113Z,98.91
2016-12-28T09:16:08.358Z,99.01
2016-12-28T09:17:19.377Z,98.63
2016-12-28T09:18:30.362Z,99.48
2016-12-28T09:19:41.350Z,99.29
2016-12-28T09:20:52.332Z,99.1
2016-12-28T09:22:03.314Z,98.91
2016-12-28T09:23:14.310Z,99.39
2016-12-28T09:24:25.290Z,99.99
2016-12-28T09:25:36.271Z,99.29
2016-12-28T09:26:47.258Z,99.2
2016-12-28T09:27:58.240Z,99.48
2016-12-28T09:29:09.230Z,99.67
2016-12-28T09:30:20.223Z,99.99
2016-12-28T09:31:31.237Z,99.99
2016-12-28T09:32:42.221Z,99.99
2016-12-28T09:33:53.202Z,99.99
2016-12-28T09:35:04.392Z,99.99
2016-12-28T09:36:15.370Z,99.99
2016-12-28T09:37:26.549Z,99.99
2016-12-28T09:38:37.562Z,99.99
2016-12-28T09:39:48.542Z,99.99
2016-12-28T09:40:59.736Z,99.99
2016-12-28T09:42:10.720Z,99.99
2016-12-28T09:43:21.705Z,99.99
2016-12-28T09:44:32.696Z,99.99
2016-12-28T09:45:43.677Z,99.99
2016-12-28T09:46:54.668Z,99.99
2016-12-28T09:48:05.652Z,99.67
2016-12-28T09:49:16.635Z,99.86
2016-12-28T09:50:27.630Z,99.99
2016-12-28T09:51:38.620Z,99.99
2016-12-28T09:52:49.620Z,99.99
2016-12-28T09:54:00.604Z,99.99
2016-12-28T09:55:11.583Z,99.99
2016-12-28T09:56:22.568Z,99.99
2016-12-28T09:57:33.562Z,99.96
2016-12-28T09:58:44.541Z,99.99
2016-12-28T09:59:55.528Z,99.99
2016-12-28T10:01:06.534Z,99.99
2016-12-28T10:02:17.721Z,99.99
2016-12-28T10:03:28.927Z,99.99
2016-12-28T10:04:39.913Z,99.99
2016-12-28T10:05:50.895Z,99.99
2016-12-28T10:07:02.080Z,99.99
2016-12-28T10:08:13.093Z,99.99
2016-12-28T10:09:24.279Z,99.99
2016-12-28T10:10:35.305Z,99.99
2016-12-28T10:11:46.288Z,99.99
2016-12-28T10:12:57.285Z,99.99
2016-12-28T10:14:08.490Z,99.99
2016-12-28T10:15:19.481Z,99.99
2016-12-28T10:16:30.500Z,99.99
2016-12-28T10:17:41.486Z,99.99
2016-12-28T10:18:52.677Z,99.99
2016-12-28T10:20:03.663Z,99.99
2016-12-28T10:21:15.056Z,99.99
2016-12-28T10:22:26.043Z,99.99
2016-12-28T10:23:37.037Z,99.99
2016-12-28T10:24:48.228Z,99.99
2016-12-28T10:25:59.427Z,99.99
2016-12-28T10:27:10.412Z,99.99
2016-12-28T10:28:21.397Z,99.99
2016-12-28T10:29:32.383Z,99.99
2016-12-28T10:30:43.419Z,99.99
2016-12-28T10:31:54.609Z,99.99
2016-12-28T10:33:05.588Z,99.99
2016-12-28T10:34:16.573Z,99.99
2016-12-28T10:35:27.768Z,99.99
2016-12-28T10:36:38.801Z,99.99
2016-12-28T10:37:49.791Z,99.99
2016-12-28T10:39:00.779Z,99.99
2016-12-28T10:40:11.769Z,99.99
2016-12-28T10:41:22.759Z,99.99
2016-12-28T10:42:33.796Z,99.99
2016-12-28T10:43:44.784Z,99.99
2016-12-28T10:44:55.788Z,99.99
2016-12-28T10:46:06.974Z,99.99
2016-12-28T10:47:17.983Z,99.99
2016-12-28T10:48:28.973Z,99.99
2016-12-28T10:49:39.959Z,99.99
2016-12-28T10:50:50.945Z,99.99
2016-12-28T10:52:01.934Z,99.99
2016-12-28T10:53:12.964Z,99.99
2016-12-28T10:54:23.952Z,99.99
2016-12-28T10:55:34.939Z,99.99
2016-12-28T10:56:45.926Z,99.99
2016-12-28T10:57:56.908Z,99.99
2016-12-28T10:59:07.944Z,99.99
2016-12-28T11:00:18.953Z,99.99
2016-12-28T11:01:29.939Z,99.99
2016-12-28T11:02:40.919Z,99.99
2016-12-28T11:03:52.104Z,99.99
2016-12-28T11:05:03.136Z,99.99
2016-12-28T11:06:14.122Z,99.99
2016-12-28T11:07:25.113Z,99.99
2016-12-28T11:08:36.099Z,99.99
2016-12-28T11:09:47.080Z,99.99
2016-12-28T11:10:58.274Z,99.99
2016-12-28T11:12:09.499Z,99.99
2016-12-28T11:13:20.511Z,99.99
2016-12-28T11:14:31.491Z,99.99
2016-12-28T11:15:42.480Z,99.99
2016-12-28T11:16:53.480Z,99.99
2016-12-28T11:18:04.466Z,99.99
2016-12-28T11:19:15.858Z,99.99
2016-12-28T11:20:26.885Z,99.99
2016-12-28T11:21:37.872Z,99.99
2016-12-28T11:22:48.856Z,99.99
2016-12-28T11:23:59.842Z,99.99
2016-12-28T11:25:10.829Z,99.99
2016-12-28T11:26:21.813Z,99.99
2016-12-28T11:27:32.797Z,99.99
2016-12-28T11:28:44.009Z,99.99
2016-12-28T11:29:55.390Z,99.99
2016-12-28T11:31:06.376Z,99.99
2016-12-28T11:32:17.558Z,99.99
2016-12-28T11:33:28.749Z,99.99
2016-12-28T11:34:39.733Z,99.99
2016-12-28T11:35:50.718Z,99.99
2016-12-28T11:37:01.707Z,99.99
2016-12-28T11:38:12.689Z,99.99
2016-12-28T11:39:23.674Z,99.99
2016-12-28T11:40:34.658Z,99.99
2016-12-28T11:41:45.649Z,99.99
2016-12-28T11:42:56.628Z,99.99
2016-12-28T11:44:07.618Z,99.99
2016-12-28T11:45:18.602Z,99.99
2016-12-28T11:46:29.586Z,99.99
2016-12-28T11:47:40.608Z,99.99
2016-12-28T11:48:51.803Z,99.99
2016-12-28T11:50:02.840Z,99.99
2016-12-28T11:51:13.832Z,99.99
2016-12-28T11:52:25.022Z,99.99
2016-12-28T11:53:36.135Z,99.99
2016-12-28T11:54:47.541Z,99.99
2016-12-28T11:55:58.938Z,99.99
2016-12-28T11:57:10.336Z,99.99
2016-12-28T11:58:21.740Z,99.99
2016-12-28T11:59:33.143Z,99.99
2016-12-28T12:00:44.551Z,99.99
2016-12-28T12:01:56.000Z,99.99
2016-12-28T12:03:07.427Z,99.99
2016-12-28T12:04:18.833Z,99.99
2016-12-28T12:05:30.229Z,99.99
2016-12-28T12:06:41.632Z,99.99
2016-12-28T12:07:53.041Z,99.99
2016-12-28T12:09:04.446Z,99.99
2016-12-28T12:10:15.850Z,99.99
2016-12-28T12:11:27.250Z,99.99
2016-12-28T12:12:38.649Z,99.99
2016-12-28T12:13:50.083Z,99.99
2016-12-28T12:15:01.481Z,99.99
2016-12-28T12:16:12.890Z,99.99
2016-12-28T12:17:24.282Z,99.99
2016-12-28T12:18:35.682Z,99.99
2016-12-28T12:19:47.083Z,99.99
2016-12-28T12:20:58.475Z,99.99
2016-12-28T12:22:09.875Z,99.99
2016-12-28T12:23:21.282Z,99.99
2016-12-28T12:24:32.684Z,99.99
2016-12-28T12:25:44.278Z,99.99
2016-12-28T12:26:55.674Z,99.99
2016-12-28T12:28:07.073Z,99.99
2016-12-28T12:29:18.475Z,99.99
2016-12-28T12:30:29.887Z,99.99
2016-12-28T12:31:41.291Z,99.99
2016-12-28T12:32:52.689Z,99.99
2016-12-28T12:34:04.094Z,99.99
2016-12-28T12:35:15.505Z,99.99
2016-12-28T12:36:26.909Z,99.99
2016-12-28T12:37:38.512Z,99.99
2016-12-28T12:38:49.924Z,99.99
2016-12-28T12:40:01.326Z,99.99
2016-12-28T12:41:12.729Z,99.99
2016-12-28T12:42:24.150Z,99.99
2016-12-28T12:43:35.552Z,99.99
2016-12-28T12:44:47.181Z,99.99
2016-12-28T12:45:58.978Z,99.99
2016-12-28T12:47:10.381Z,99.99
2016-12-28T12:48:21.790Z,99.99
2016-12-28T12:49:33.201Z,99.99
2016-12-28T12:50:44.798Z,99.99
2016-12-28T12:51:56.201Z,99.99
2016-12-28T12:53:07.611Z,99.99
2016-12-28T12:54:19.016Z,99.99
2016-12-28T12:55:30.449Z,99.99
2016-12-28T12:56:41.856Z,99.99
2016-12-28T12:57:53.261Z,99.99
2016-12-28T12:59:04.667Z,99.99
2016-12-28T13:00:16.294Z,99.99
2016-12-28T13:01:27.697Z,99.99
2016-12-28T13:02:39.497Z,99.99
2016-12-28T13:03:50.899Z,99.99
2016-12-28T13:05:02.348Z,99.99
2016-12-28T13:06:13.792Z,99.99
2016-12-28T13:07:25.204Z,99.99
2016-12-28T13:08:36.602Z,99.99
2016-12-28T13:09:48.005Z,99.99
2016-12-28T13:10:59.408Z,99.99
2016-12-28T13:12:10.810Z,99.99
2016-12-28T13:13:22.204Z,99.99
2016-12-28T13:14:33.807Z,99.99
2016-12-28T13:15:45.222Z,99.99
2016-12-28T13:16:56.617Z,99.99
2016-12-28T13:18:08.020Z,99.99
2016-12-28T13:19:19.623Z,99.99
2016-12-28T13:20:31.018Z,99.99
2016-12-28T13:21:42.619Z,99.99
2016-12-28T13:22:54.016Z,99.99
2016-12-28T13:24:05.408Z,99.99
2016-12-28T13:25:16.798Z,99.99
2016-12-28T13:26:28.200Z,99.99
2016-12-28T13:27:39.807Z,99.99
2016-12-28T13:28:51.419Z,99.99
2016-12-28T13:30:02.816Z,99.99
2016-12-28T13:31:14.219Z,99.99
2016-12-28T13:32:25.636Z,99.99
2016-12-28T13:33:37.038Z,99.99
2016-12-28T13:34:48.438Z,99.99
2016-12-28T13:35:59.838Z,99.99
2016-12-28T13:37:11.244Z,99.99
2016-12-28T13:38:22.642Z,99.99
2016-12-28T13:39:34.048Z,99.99
2016-12-28T13:40:45.655Z,99.99
2016-12-28T13:41:57.050Z,99.99
2016-12-28T13:43:08.659Z,99.99
2016-12-28T13:44:20.061Z,99.99
2016-12-28T13:45:31.467Z,99.99
2016-12-28T13:46:42.881Z,99.99
2016-12-28T13:47:54.280Z,99.99
2016-12-28T13:49:05.692Z,99.99
2016-12-28T13:50:17.093Z,99.99
2016-12-28T13:51:28.483Z,99.99
2016-12-28T13:52:39.886Z,99.99
2016-12-28T13:53:51.295Z,99.99
2016-12-28T13:55:02.898Z,99.99
2016-12-28T13:56:14.303Z,99.99
2016-12-28T13:57:25.699Z,99.99
2016-12-28T13:58:37.093Z,99.99
2016-12-28T13:59:48.693Z,99.99
2016-12-28T14:01:00.291Z,99.99
2016-12-28T14:02:11.691Z,99.99
2016-12-28T14:03:23.092Z,99.99
2016-12-28T14:04:34.496Z,99.99
2016-12-28T14:05:45.897Z,99.99
2016-12-28T14:06:57.307Z,99.99
2016-12-28T14:08:08.707Z,99.99
2016-12-28T14:09:20.102Z,99.99
2016-12-28T14:10:31.543Z,99.99
2016-12-28T14:11:42.959Z,99.99
2016-12-28T14:12:54.367Z,99.99
2016-12-28T14:14:05.775Z,99.99
2016-12-28T14:15:17.175Z,99.99
2016-12-28T14:16:28.578Z,99.99
2016-12-28T14:17:39.981Z,99.99
2016-12-28T14:18:51.377Z,99.99
2016-12-28T14:20:02.779Z,99.99
2016-12-28T14:21:14.211Z,99.99
2016-12-28T14:22:25.813Z,99.99
2016-12-28T14:23:37.212Z,99.99
2016-12-28T14:24:48.634Z,99.99
2016-12-28T14:26:00.039Z,99.99
2016-12-28T14:27:11.650Z,99.99
2016-12-28T14:28:23.052Z,99.99
2016-12-28T14:29:34.447Z,99.99
2016-12-28T14:30:45.852Z,99.99
2016-12-28T14:31:57.253Z,99.99
2016-12-28T14:33:08.862Z,99.99
2016-12-28T14:34:20.489Z,99.99
2016-12-28T14:35:31.880Z,99.99
2016-12-28T14:36:43.513Z,99.99
2016-12-28T14:37:54.923Z,99.99
2016-12-28T14:39:06.334Z,99.99
2016-12-28T14:40:17.731Z,99.99
2016-12-28T14:41:29.133Z,99.99
2016-12-28T14:42:40.560Z,99.99
2016-12-28T14:43:51.965Z,99.99
2016-12-28T14:45:03.363Z,99.99
2016-12-28T14:46:14.967Z,99.99
2016-12-28T14:47:26.370Z,99.99
2016-12-28T14:48:38.014Z,99.99
2016-12-28T14:49:49.423Z,99.99
2016-12-28T14:51:00.881Z,99.99
2016-12-28T14:52:12.518Z,99.99
2016-12-28T14:53:23.925Z,99.99
2016-12-28T14:54:35.325Z,99.99
2016-12-28T14:55:46.782Z,99.99
2016-12-28T14:56:58.189Z,99.99
2016-12-28T14:58:09.596Z,99.99
2016-12-28T14:59:21.026Z,99.99
2016-12-28T15:00:32.433Z,99.99
2016-12-28T15:01:44.097Z,99.99
2016-12-28T15:02:55.499Z,99.99
2016-12-28T15:04:06.902Z,99.99
2016-12-28T15:05:18.332Z,99.99
2016-12-28T15:06:29.738Z,99.99
2016-12-28T15:07:41.191Z,99.99
2016-12-28T15:08:52.598Z,99.99
2016-12-28T15:10:03.991Z,99.99
2016-12-28T15:11:15.392Z,99.99
2016-12-28T15:12:26.797Z,99.99
2016-12-28T15:13:38.249Z,99.99
2016-12-28T15:14:49.667Z,99.99
2016-12-28T15:16:01.068Z,99.99